Time;durP1;ratioP1;P1;durP2;ratioP2;P2;SDS_P1;SDS_P2;PMS_P1;PMS_P2;Temp;Humidity;BMP_temperature;BMP_pressure;BME280_temperature;BME280_humidity;BME280_pressure;Samples;Min_cycle;Max_cycle;Signal;HPM_P1;HPM_P2
2021/11/23 00:00:12;;;;;;;67.70;34.22;;;;;;;11.11;90.51;97335.97;5043279;28;20024;-89
2021/11/23 00:02:47;;;;;;;64.93;31.83;;;;;;;11.14;90.55;97341.13;5062079;28;20029;-88
2021/11/23 00:05:13;;;;;;;52.88;28.55;;;;;;;10.93;89.34;97289.91;5062004;28;20039;-90
2021/11/23 00:07:39;;;;;;;55.20;29.75;;;;;;;11.24;88.82;97331.53;5060561;28;20028;-90
2021/11/23 00:10:08;;;;;;;53.05;28.13;;;;;;;10.98;89.46;97325.28;5060109;28;20030;-89
2021/11/23 00:12:34;;;;;;;54.40;26.75;;;;;;;10.75;90.38;97307.19;5062046;28;20024;-87
2021/11/23 00:15:00;;;;;;;56.33;24.45;;;;;;;10.93;90.99;97339.88;5062311;28;20047;-90
2021/11/23 00:17:26;;;;;;;51.63;25.10;;;;;;;11.03;90.65;97355.25;5057790;28;20024;-88
2021/11/23 00:19:51;;;;;;;54.15;25.75;;;;;;;11.09;90.80;97368.22;5042116;28;20032;-90
2021/11/23 00:22:17;;;;;;;54.38;25.17;;;;;;;11.14;90.49;97370.56;5025431;28;20016;-88
2021/11/23 00:24:43;;;;;;;54.15;25.23;;;;;;;11.16;90.61;97374.88;5025345;28;20063;-90
2021/11/23 00:27:09;;;;;;;55.83;24.77;;;;;;;11.09;91.20;97360.19;5024372;28;20033;-90
2021/11/23 00:29:35;;;;;;;50.33;24.48;;;;;;;11.00;92.08;97358.13;5025326;28;20048;-89
2021/11/23 00:32:02;;;;;;;50.42;24.27;;;;;;;11.23;91.89;97383.34;5023760;28;20092;-90
2021/11/23 00:34:28;;;;;;;48.97;22.10;;;;;;;10.83;92.14;97316.44;5023223;28;20023;-89
2021/11/23 00:36:54;;;;;;;46.85;22.70;;;;;;;11.12;91.96;97357.31;5039353;28;20025;-88
2021/11/23 00:39:20;;;;;;;50.65;22.65;;;;;;;10.96;92.14;97337.88;5043305;28;20031;-89
2021/11/23 00:41:48;;;;;;;48.83;22.48;;;;;;;11.08;92.82;97362.94;5038787;28;20037;-89
2021/11/23 00:44:25;;;;;;;46.80;22.88;;;;;;;10.86;92.36;97324.25;5040219;28;20056;-89
2021/11/23 00:46:51;;;;;;;46.05;20.90;;;;;;;11.19;92.50;97371.13;5038557;28;20044;-89
2021/11/23 00:49:17;;;;;;;42.90;21.00;;;;;;;11.16;91.98;97358.81;5022576;28;20047;-88
2021/11/23 00:51:43;;;;;;;46.58;21.48;;;;;;;11.40;92.50;97386.63;5039193;28;20385;-88
2021/11/23 00:54:09;;;;;;;47.13;22.05;;;;;;;11.33;93.68;97374.59;5024135;28;20033;-89
2021/11/23 00:56:34;;;;;;;51.63;25.00;;;;;;;11.49;94.73;97400.34;5039082;28;20490;-88
2021/11/23 00:59:00;;;;;;;55.65;23.63;;;;;;;11.52;94.94;97402.81;5037397;28;20032;-89
2021/11/23 01:01:26;;;;;;;70.93;30.27;;;;;;;11.26;95.38;97372.41;5037746;28;20021;-89
2021/11/23 01:03:52;;;;;;;75.78;31.48;;;;;;;11.32;95.11;97372.88;5036840;28;20119;-89
2021/11/23 01:06:18;;;;;;;66.65;30.48;;;;;;;11.40;97.03;97391.13;5036840;28;20408;-88
2021/11/23 01:08:44;;;;;;;77.90;29.70;;;;;;;11.46;98.17;97392.50;5037824;28;20489;-88
2021/11/23 01:11:12;;;;;;;84.32;37.08;;;;;;;11.48;97.84;97396.78;5037382;28;20021;-88
2021/11/23 01:13:38;;;;;;;65.55;29.25;;;;;;;11.33;98.17;97374.59;5037539;28;20035;-87
2021/11/23 01:16:04;;;;;;;68.35;31.50;;;;;;;11.48;98.24;97403.97;5037165;28;20102;-88
2021/11/23 01:18:32;;;;;;;71.20;32.15;;;;;;;11.50;99.35;97419.00;5023821;28;20560;-90
2021/11/23 01:21:01;;;;;;;74.45;31.60;;;;;;;11.38;100.00;97398.41;5012928;28;20086;-90
2021/11/23 01:23:27;;;;;;;70.30;32.17;;;;;;;11.51;100.00;97409.13;5019329;28;20122;-89
2021/11/23 01:25:54;;;;;;;72.85;31.40;;;;;;;11.49;100.00;97416.41;5018998;28;20033;-88
2021/11/23 01:28:20;;;;;;;67.18;30.58;;;;;;;11.36;100.00;97416.38;5019366;28;20455;-88
2021/11/23 01:30:45;;;;;;;68.35;30.80;;;;;;;11.24;100.00;97406.47;5035644;28;20017;-88
2021/11/23 01:33:11;;;;;;;53.40;28.23;;;;;;;11.27;100.00;97422.34;5035638;28;20035;-88
2021/11/23 01:35:44;;;;;;;49.70;26.08;;;;;;;11.14;100.00;97390.16;5035498;28;20054;-88
2021/11/23 01:38:10;;;;;;;50.17;26.48;;;;;;;11.04;100.00;97397.13;5035409;28;20025;-89
2021/11/23 01:40:36;;;;;;;62.58;28.00;;;;;;;10.85;100.00;97376.06;5036814;28;20448;-88
2021/11/23 01:43:07;;;;;;;58.58;28.60;;;;;;;11.10;100.00;97409.22;5036105;28;20427;-89
2021/11/23 01:45:38;;;;;;;57.25;29.00;;;;;;;10.89;100.00;97387.41;5035767;28;20031;-88
2021/11/23 01:48:06;;;;;;;58.20;28.13;;;;;;;11.15;100.00;97440.09;5035563;28;20504;-89
2021/11/23 01:50:32;;;;;;;58.10;28.88;;;;;;;10.98;100.00;97408.22;5035960;28;20040;-90
2021/11/23 01:52:59;;;;;;;51.15;27.42;;;;;;;10.91;100.00;97398.88;5036340;28;20024;-89
2021/11/23 01:55:25;;;;;;;49.50;26.20;;;;;;;11.07;100.00;97421.00;5036127;28;20021;-89
2021/11/23 01:57:52;;;;;;;44.40;24.38;;;;;;;11.19;100.00;97438.06;5038822;28;20377;-87
2021/11/23 02:00:17;;;;;;;50.83;25.83;;;;;;;10.98;100.00;97410.91;5040624;28;20021;-88
2021/11/23 02:02:45;;;;;;;53.05;26.95;;;;;;;10.69;100.00;97356.63;5040578;28;20024;-89
2021/11/23 02:05:12;;;;;;;55.03;25.70;;;;;;;10.77;100.00;97370.34;5040753;28;20024;-87
2021/11/23 02:07:38;;;;;;;46.58;25.98;;;;;;;10.82;100.00;97383.44;5041496;28;20411;-90
2021/11/23 02:10:08;;;;;;;43.22;23.17;;;;;;;10.94;100.00;97404.03;5039835;28;20049;-88
2021/11/23 02:12:35;;;;;;;37.17;21.80;;;;;;;11.07;100.00;97423.69;5038448;28;20021;-88
2021/11/23 02:15:05;;;;;;;39.45;23.27;;;;;;;11.28;100.00;97445.50;5039752;28;20033;-87
2021/11/23 02:17:31;;;;;;;42.17;20.92;;;;;;;11.14;100.00;97422.28;5039062;28;20401;-89
2021/11/23 02:19:57;;;;;;;48.75;23.23;;;;;;;11.25;100.00;97433.16;5022830;28;20424;-89
2021/11/23 02:22:23;;;;;;;47.90;23.50;;;;;;;11.24;100.00;97433.25;5038487;28;20029;-87
2021/11/23 02:24:48;;;;;;;48.45;26.40;;;;;;;11.18;100.00;97434.53;5021508;28;20504;-88
2021/11/23 02:27:14;;;;;;;45.60;24.05;;;;;;;11.05;100.00;97417.56;5021889;28;20167;-87
2021/11/23 02:29:41;;;;;;;43.80;23.55;;;;;;;11.00;100.00;97417.00;5021646;28;20033;-88
2021/11/23 02:32:07;;;;;;;49.15;25.70;;;;;;;11.09;100.00;97443.16;5022581;28;20035;-88
2021/11/23 02:34:33;;;;;;;47.40;25.08;;;;;;;11.08;100.00;97443.25;5022374;28;20033;-89
2021/11/23 02:36:59;;;;;;;48.53;27.10;;;;;;;10.87;100.00;97410.72;5023819;28;20032;-87
2021/11/23 02:39:25;;;;;;;50.42;24.00;;;;;;;10.74;100.00;97412.47;5038867;28;20028;-89
2021/11/23 02:41:51;;;;;;;46.60;25.45;;;;;;;10.83;100.00;97406.53;5030886;28;20071;-89
2021/11/23 02:44:17;;;;;;;48.17;26.65;;;;;;;10.79;100.00;97407.72;5041309;28;20029;-89
2021/11/23 02:46:43;;;;;;;44.65;25.90;;;;;;;10.81;100.00;97419.16;5040716;28;20032;-86
2021/11/23 02:49:09;;;;;;;49.40;25.48;;;;;;;10.83;100.00;97431.47;5036816;28;20033;-88
2021/11/23 02:51:37;;;;;;;53.15;26.77;;;;;;;10.82;100.00;97420.88;5021009;28;20095;-88
2021/11/23 02:54:03;;;;;;;53.55;28.17;;;;;;;10.96;100.00;97450.28;5021118;28;20035;-87
2021/11/23 02:56:29;;;;;;;51.08;26.08;;;;;;;10.67;100.00;97411.19;5020201;28;20020;-87
2021/11/23 02:58:55;;;;;;;47.50;25.48;;;;;;;10.64;100.00;97395.34;5037736;28;20083;-87
2021/11/23 03:01:23;;;;;;;52.45;27.13;;;;;;;10.79;100.00;97415.75;5020742;28;20411;-88
2021/11/23 03:03:49;;;;;;;47.17;26.30;;;;;;;10.56;100.00;97385.13;5021225;28;20278;-88
2021/11/23 03:06:17;;;;;;;52.92;26.25;;;;;;;10.76;100.00;97415.94;5021555;28;20137;-88
2021/11/23 03:08:46;;;;;;;52.58;26.83;;;;;;;10.93;100.00;97439.75;5037745;28;20055;-87
2021/11/23 03:11:13;;;;;;;51.10;27.25;;;;;;;10.62;100.00;97389.19;5021692;28;20472;-88
2021/11/23 03:13:39;;;;;;;55.20;28.63;;;;;;;10.96;100.00;97439.56;5020556;28;20455;-88
2021/11/23 03:16:06;;;;;;;53.72;28.20;;;;;;;10.81;100.00;97416.47;5037359;28;20059;-88
2021/11/23 03:18:33;;;;;;;52.72;28.33;;;;;;;10.84;100.00;97418.97;5019976;28;20111;-89
2021/11/23 03:20:59;;;;;;;58.10;30.48;;;;;;;10.91;100.00;97431.00;5035069;28;20032;-88
2021/11/23 03:23:25;;;;;;;52.95;28.65;;;;;;;11.04;100.00;97450.66;5033929;28;20036;-88
2021/11/23 03:25:51;;;;;;;54.00;28.15;;;;;;;10.96;100.00;97430.69;5056578;28;20025;-89
2021/11/23 03:28:17;;;;;;;60.25;31.25;;;;;;;10.94;100.00;97430.78;5056393;28;20385;-87
2021/11/23 03:30:43;;;;;;;56.75;29.83;;;;;;;10.84;100.00;97424.31;5055861;28;20163;-88
2021/11/23 03:33:09;;;;;;;48.30;23.80;;;;;;;10.99;100.00;97460.78;5040609;28;20496;-88
2021/11/23 03:35:38;;;;;;;49.47;26.17;;;;;;;10.96;100.00;97454.75;5056322;28;20484;-88
2021/11/23 03:38:06;;;;;;;57.67;28.52;;;;;;;10.99;100.00;97463.44;5056188;28;20380;-88
2021/11/23 03:40:32;;;;;;;53.45;28.98;;;;;;;11.01;100.00;97458.88;5056123;28;20055;-89
2021/11/23 03:42:59;;;;;;;49.97;25.73;;;;;;;10.85;100.00;97439.41;5055814;28;20055;-89
2021/11/23 03:45:25;;;;;;;54.35;25.90;;;;;;;10.77;100.00;97428.34;5039648;28;20083;-90
2021/11/23 03:47:52;;;;;;;52.22;26.05;;;;;;;11.01;100.00;97468.72;5039015;28;20396;-88
2021/11/23 03:50:18;;;;;;;53.33;26.02;;;;;;;11.06;100.00;97471.94;5056247;28;20029;-88
2021/11/23 03:52:45;;;;;;;47.28;24.90;;;;;;;11.00;100.00;97483.06;5039676;28;20033;-87
2021/11/23 03:55:16;;;;;;;50.15;25.88;;;;;;;10.65;100.00;97445.16;5039624;28;20055;-88
2021/11/23 03:57:44;;;;;;;49.63;25.55;;;;;;;10.72;100.00;97441.16;5040235;28;20508;-89
2021/11/23 04:00:12;;;;;;;50.83;26.10;;;;;;;10.70;100.00;97451.09;5039517;28;20031;-88
2021/11/23 04:02:38;;;;;;;54.13;28.42;;;;;;;10.46;100.00;97433.94;5039407;28;20051;-88
2021/11/23 04:05:04;;;;;;;51.45;27.40;;;;;;;10.84;100.00;97488.53;5038733;28;20488;-87
2021/11/23 04:07:30;;;;;;;53.38;26.65;;;;;;;10.77;100.00;97463.13;5039032;28;20492;-88
2021/11/23 04:09:56;;;;;;;46.30;25.73;;;;;;;10.57;100.00;97431.44;5039476;28;20036;-89
2021/11/23 04:12:21;;;;;;;48.50;24.38;;;;;;;10.83;100.00;97481.44;5039460;28;20102;-89
2021/11/23 04:14:47;;;;;;;45.63;23.52;;;;;;;10.84;100.00;97480.50;5038987;28;20021;-88
2021/11/23 04:17:18;;;;;;;81.63;36.15;;;;;;;10.51;100.00;97440.72;5039564;28;20031;-89
2021/11/23 04:19:44;;;;;;;107.05;40.10;;;;;;;10.48;100.00;97448.06;5039684;28;20047;-88
2021/11/23 04:22:10;;;;;;;71.00;33.10;;;;;;;10.40;100.00;97450.38;5039165;28;20028;-87
2021/11/23 04:24:35;;;;;;;48.33;25.67;;;;;;;10.50;100.00;97463.06;5040539;28;20105;-87
2021/11/23 04:27:02;;;;;;;46.67;24.75;;;;;;;10.61;100.00;97473.09;5055948;28;20115;-88
2021/11/23 04:29:27;;;;;;;47.92;25.08;;;;;;;10.52;100.00;97452.28;5045444;28;20028;-88
2021/11/23 04:32:13;;;;;;;53.97;25.65;;;;;;;10.89;100.00;97505.13;5039868;28;20578;-88
2021/11/23 04:35:07;;;;;;;43.95;25.15;;;;;;;10.89;100.00;97507.81;5039732;28;20056;-89
2021/11/23 04:37:32;;;;;;;51.33;27.20;;;;;;;10.86;100.00;97502.66;5055964;28;20024;-89
2021/11/23 04:39:58;;;;;;;52.10;25.83;;;;;;;10.78;100.00;97494.28;5039252;28;20031;-88
2021/11/23 04:42:24;;;;;;;55.58;28.05;;;;;;;10.73;100.00;97481.22;5039112;28;20091;-87
2021/11/23 04:44:50;;;;;;;66.13;31.50;;;;;;;10.65;100.00;97463.91;5038669;28;20439;-88
2021/11/23 04:47:15;;;;;;;60.78;31.67;;;;;;;10.74;100.00;97479.34;5055159;28;20197;-88
2021/11/23 04:49:47;;;;;;;66.97;32.25;;;;;;;10.82;100.00;97495.81;5055293;28;20039;-88
2021/11/23 04:52:12;;;;;;;86.53;42.28;;;;;;;10.70;100.00;97475.19;5072255;28;20016;-87
2021/11/23 04:54:38;;;;;;;81.65;41.15;;;;;;;10.91;100.00;97505.91;5038062;28;20112;-88
2021/11/23 04:57:12;;;;;;;57.70;32.10;;;;;;;10.81;100.00;97488.72;5055517;28;20025;-89
2021/11/23 04:59:57;;;;;;;43.75;24.45;;;;;;;10.79;100.00;97502.22;5071957;28;20029;-84
2021/11/23 05:02:23;;;;;;;45.40;25.08;;;;;;;10.73;100.00;97509.75;5056622;28;20126;-89
2021/11/23 05:04:49;;;;;;;44.63;25.83;;;;;;;10.53;100.00;97483.41;5038874;28;20120;-88
2021/11/23 05:07:14;;;;;;;47.58;26.25;;;;;;;10.72;100.00;97521.41;5038477;28;20031;-88
2021/11/23 05:09:40;;;;;;;44.30;25.42;;;;;;;10.53;100.00;97486.06;5054632;28;20033;-88
2021/11/23 05:12:06;;;;;;;47.25;26.60;;;;;;;10.61;100.00;97529.25;5038414;28;20024;-88
2021/11/23 05:14:31;;;;;;;48.35;26.25;;;;;;;10.54;100.00;97515.41;5038373;28;20175;-88
2021/11/23 05:16:57;;;;;;;51.03;29.08;;;;;;;10.61;100.00;97531.94;5037305;28;20031;-90
2021/11/23 05:19:23;;;;;;;50.95;28.20;;;;;;;10.66;100.00;97546.75;5042153;28;20029;-89
2021/11/23 05:21:49;;;;;;;56.42;29.52;;;;;;;10.49;100.00;97517.50;5055161;28;20028;-87
2021/11/23 05:24:14;;;;;;;51.17;30.38;;;;;;;10.42;100.00;97512.63;5038670;28;20480;-86
2021/11/23 05:26:40;;;;;;;57.58;27.92;;;;;;;10.57;100.00;97533.06;5038310;28;20025;-87
2021/11/23 05:29:07;;;;;;;43.85;25.15;;;;;;;10.41;100.00;97537.63;5054834;28;20021;-88
2021/11/23 05:31:33;;;;;;;47.50;25.80;;;;;;;10.46;100.00;97546.25;5038627;28;20500;-88
2021/11/23 05:34:07;;;;;;;48.58;27.60;;;;;;;10.44;100.00;97551.69;5042692;28;20039;-87
2021/11/23 05:36:32;;;;;;;51.35;29.13;;;;;;;10.08;100.00;97498.63;5042756;28;20024;-89
2021/11/23 05:39:12;;;;;;;53.13;28.15;;;;;;;10.29;100.00;97545.47;5045777;28;20345;-89
2021/11/23 05:41:42;;;;;;;45.80;26.83;;;;;;;10.16;100.00;97530.25;5057509;28;20493;-92
2021/11/23 05:44:09;;;;;;;48.17;27.85;;;;;;;10.43;100.00;97575.88;5043570;28;20555;-90
2021/11/23 05:46:45;;;;;;;52.47;29.40;;;;;;;10.16;100.00;97539.13;5045131;28;20106;-91
2021/11/23 05:49:17;;;;;;;48.83;28.02;;;;;;;10.42;100.00;97590.19;5043729;28;20052;-92
2021/11/23 05:59:23;;;;;;;;;;;;;;;;;;;;;
2021/11/23 06:09:16;;;;;;;52.90;30.85;;;;;;;10.13;100.00;97566.06;4917851;29;20055;-90
2021/11/23 06:15:25;;;;;;;;;;;;;;;;;;;;;
2021/11/23 06:18:30;;;;;;;;;;;;;;;;;;;;;
2021/11/23 06:21:10;;;;;;;63.45;35.45;;;;;;;10.07;100.00;97560.19;4975185;28;20062;-89
2021/11/23 06:23:43;;;;;;;68.47;37.47;;;;;;;10.05;100.00;97570.97;4951342;28;20135;-90
2021/11/23 06:26:09;;;;;;;78.88;43.53;;;;;;;10.11;100.00;97596.47;4961732;28;20133;-88
2021/11/23 06:28:45;;;;;;;82.53;45.35;;;;;;;10.00;100.00;97580.19;5004063;28;20465;-90
2021/11/23 06:31:14;;;;;;;81.68;46.28;;;;;;;10.13;100.00;97603.47;5002448;28;20052;-90
2021/11/23 06:33:39;;;;;;;87.35;46.97;;;;;;;9.81;100.00;97559.06;5001240;28;20041;-91
2021/11/23 06:36:05;;;;;;;73.03;43.03;;;;;;;9.97;100.00;97591.06;5006556;28;20030;-90
2021/11/23 06:38:32;;;;;;;63.72;38.08;;;;;;;10.00;100.00;97593.53;5002985;28;20087;-90
2021/11/23 06:41:01;;;;;;;72.38;39.00;;;;;;;10.08;100.00;97607.34;5042078;28;20028;-90
2021/11/23 06:43:30;;;;;;;74.05;45.38;;;;;;;9.88;100.00;97573.75;5044712;28;20104;-93
2021/11/23 06:45:58;;;;;;;71.10;36.40;;;;;;;10.03;100.00;97606.75;5048312;28;20024;-92
2021/11/23 06:48:24;;;;;;;70.18;38.88;;;;;;;10.12;100.00;97615.06;5047131;28;20029;-91
2021/11/23 06:54:17;;;;;;;93.75;52.30;;;;;;;9.97;100.00;97597.25;5079365;28;20107;-91
2021/11/23 06:57:16;;;;;;;112.28;60.42;;;;;;;10.40;100.00;97658.94;5048767;28;20028;-91
2021/11/23 07:06:34;;;;;;;97.07;55.03;;;;;;;10.32;100.00;97641.53;5080190;28;20047;-91
2021/11/23 07:09:03;;;;;;;119.28;61.00;;;;;;;10.33;100.00;97645.06;5048163;28;20024;-92
2021/11/23 07:11:35;;;;;;;119.03;62.33;;;;;;;10.14;100.00;97625.72;5046163;28;20024;-93
2021/11/23 07:20:57;;;;;;;75.20;43.40;;;;;;;10.16;100.00;97650.53;5042017;28;20113;-92
2021/11/23 07:23:24;;;;;;;74.90;42.25;;;;;;;10.23;100.00;97668.81;5044003;28;20086;-92
2021/11/23 07:25:50;;;;;;;82.97;45.95;;;;;;;10.14;100.00;97644.44;5060904;28;20025;-93
2021/11/23 07:28:19;;;;;;;101.25;50.25;;;;;;;10.31;100.00;97676.34;5044398;28;20036;-92
2021/11/23 07:30:48;;;;;;;97.93;49.85;;;;;;;10.29;100.00;97664.91;5045498;28;20074;-92
2021/11/23 07:36:40;;;;;;;63.22;33.30;;;;;;;10.43;100.00;97696.19;5079425;28;20071;-92
2021/11/23 07:39:09;;;;;;;64.25;34.50;;;;;;;10.26;100.00;97673.09;5044098;28;20027;-91
2021/11/23 07:45:47;;;;;;;61.95;35.63;;;;;;;10.51;100.00;97726.00;4997316;28;20048;-91
2021/11/23 07:54:59;;;;;;;77.78;41.97;;;;;;;10.41;100.00;97725.69;4991206;28;20528;-81
2021/11/23 07:57:25;;;;;;;93.50;46.92;;;;;;;10.43;100.00;97734.47;5054117;28;20031;-81
2021/11/23 07:59:51;;;;;;;91.10;47.70;;;;;;;10.45;100.00;97747.75;5054000;28;20024;-81
2021/11/23 08:02:16;;;;;;;76.53;40.67;;;;;;;10.40;100.00;97748.00;5033973;28;20063;-81
2021/11/23 08:04:42;;;;;;;78.68;39.72;;;;;;;10.33;100.00;97754.69;5020866;28;20025;-81
2021/11/23 08:07:08;;;;;;;80.35;38.30;;;;;;;10.20;100.00;97767.03;5071629;28;20484;-81
2021/11/23 08:09:34;;;;;;;78.47;38.80;;;;;;;10.06;100.00;97762.41;5053440;28;20496;-81
2021/11/23 08:11:59;;;;;;;79.63;38.95;;;;;;;10.15;100.00;97772.63;5036722;28;20087;-80
2021/11/23 08:14:26;;;;;;;71.60;38.80;;;;;;;10.17;100.00;97765.41;5053833;28;20452;-81
2021/11/23 08:16:54;;;;;;;74.45;37.50;;;;;;;10.31;100.00;97772.59;5037472;28;20032;-81
2021/11/23 08:19:20;;;;;;;71.30;37.95;;;;;;;10.37;100.00;97772.25;5037404;28;20024;-80
2021/11/23 08:21:46;;;;;;;76.43;40.40;;;;;;;10.18;100.00;97758.25;5037213;28;20460;-80
2021/11/23 08:24:14;;;;;;;78.57;40.28;;;;;;;10.00;100.00;97752.06;5053680;28;20028;-81
2021/11/23 08:26:40;;;;;;;80.43;40.80;;;;;;;9.98;100.00;97767.34;5037464;28;20038;-80
2021/11/23 08:29:09;;;;;;;79.70;41.58;;;;;;;10.13;100.00;97789.66;5036983;28;20450;-81
2021/11/23 08:31:35;;;;;;;75.88;41.40;;;;;;;10.21;100.00;97774.09;5064915;28;20450;-81
2021/11/23 08:34:04;;;;;;;76.00;39.83;;;;;;;10.09;100.00;97770.25;5036837;28;20470;-81
2021/11/23 08:36:31;;;;;;;77.22;43.08;;;;;;;10.12;100.00;97782.63;5053096;28;20027;-81
2021/11/23 08:38:58;;;;;;;80.38;42.00;;;;;;;10.10;100.00;97785.34;5049959;28;20067;-79
2021/11/23 08:41:26;;;;;;;86.05;45.42;;;;;;;10.12;100.00;97788.78;5053401;28;20064;-80
2021/11/23 08:43:51;;;;;;;79.55;43.30;;;;;;;10.22;100.00;97784.69;5050846;28;20059;-80
2021/11/23 08:46:17;;;;;;;86.43;44.17;;;;;;;10.33;100.00;97784.97;5051466;28;20025;-79
2021/11/23 08:48:42;;;;;;;65.88;35.55;;;;;;;10.47;100.00;97796.66;5021727;28;20031;-80
2021/11/23 08:51:12;;;;;;;56.33;32.70;;;;;;;10.36;100.00;97785.72;5033252;28;20484;-80
2021/11/23 08:53:38;;;;;;;54.60;30.67;;;;;;;10.20;100.00;97767.03;5028320;28;20033;-80
2021/11/23 08:56:05;;;;;;;58.50;33.90;;;;;;;10.37;100.00;97792.81;5037893;28;20393;-80
2021/11/23 08:58:31;;;;;;;57.15;32.50;;;;;;;10.46;100.00;97781.59;5033911;28;20032;-80
2021/11/23 09:00:58;;;;;;;58.55;33.92;;;;;;;10.55;100.00;97792.59;5045686;28;20064;-81
2021/11/23 09:03:24;;;;;;;59.33;34.72;;;;;;;10.60;100.00;97800.34;5051440;28;20032;-81
2021/11/23 09:05:51;;;;;;;58.35;35.25;;;;;;;10.67;100.00;97789.22;5027644;28;20074;-80
2021/11/23 09:08:17;;;;;;;65.47;34.92;;;;;;;10.70;100.00;97801.56;5048714;28;20040;-80
2021/11/23 09:10:43;;;;;;;60.58;37.20;;;;;;;10.69;100.00;97786.44;5067012;28;20424;-80
2021/11/23 09:13:09;;;;;;;64.95;38.15;;;;;;;10.74;100.00;97795.06;5020519;28;20029;-81
2021/11/23 09:15:35;;;;;;;55.10;32.17;;;;;;;10.70;100.00;97789.06;5040148;28;20043;-81
2021/11/23 09:18:02;;;;;;;69.10;35.08;;;;;;;10.74;100.00;97798.59;5056855;28;20031;-81
2021/11/23 09:20:39;;;;;;;59.20;30.27;;;;;;;10.68;100.00;97774.88;5057141;28;20193;-81
2021/11/23 09:23:13;;;;;;;36.42;21.85;;;;;;;10.68;100.00;97788.25;5024654;28;20032;-81
2021/11/23 09:25:39;;;;;;;27.70;17.45;;;;;;;10.62;100.00;97793.97;5039795;28;20028;-81
2021/11/23 09:28:06;;;;;;;34.78;17.33;;;;;;;10.51;100.00;97795.53;5027179;28;20032;-80
2021/11/23 09:30:34;;;;;;;25.10;16.17;;;;;;;10.49;100.00;97795.63;5040556;28;20071;-81
2021/11/23 09:33:01;;;;;;;25.50;16.17;;;;;;;10.50;100.00;97786.66;5037447;28;20146;-81
2021/11/23 09:35:27;;;;;;;27.95;16.95;;;;;;;10.51;100.00;97796.41;5036747;28;20029;-80
2021/11/23 09:37:54;;;;;;;28.50;17.85;;;;;;;10.57;100.00;97790.72;5039807;28;20028;-80
2021/11/23 09:40:20;;;;;;;25.83;15.98;;;;;;;10.51;100.00;97779.50;5031535;28;20123;-81
2021/11/23 09:42:47;;;;;;;25.73;16.70;;;;;;;10.49;100.00;97784.09;5031683;28;20104;-83
2021/11/23 09:45:13;;;;;;;25.10;14.95;;;;;;;10.54;100.00;97780.19;5020791;28;20017;-79
2021/11/23 09:47:39;;;;;;;29.05;17.35;;;;;;;10.63;100.00;97781.44;5047193;28;20416;-80
2021/11/23 09:50:06;;;;;;;25.27;15.98;;;;;;;10.72;100.00;97775.56;5042219;28;20091;-81
2021/11/23 09:52:33;;;;;;;42.55;23.17;;;;;;;10.74;100.00;97779.00;5033525;28;20034;-80
2021/11/23 09:54:59;;;;;;;28.58;18.55;;;;;;;10.69;100.00;97773.94;5041504;28;20071;-83
2021/11/23 09:57:24;;;;;;;27.42;17.42;;;;;;;10.70;100.00;97774.81;5047068;28;20028;-82
2021/11/23 09:59:50;;;;;;;27.08;17.27;;;;;;;10.77;100.00;97781.50;5045165;28;20571;-82
2021/11/23 10:02:30;;;;;;;23.00;17.25;;;;;;;10.78;100.00;97793.94;5041731;28;20149;-83
2021/11/23 10:05:04;;;;;;;32.55;19.02;;;;;;;10.72;100.00;97772.88;5056412;28;20522;-83
2021/11/23 10:07:41;;;;;;;27.25;18.48;;;;;;;10.69;100.00;97783.78;5038961;28;20532;-82
2021/11/23 10:10:14;;;;;;;37.22;19.48;;;;;;;10.67;100.00;97786.56;5035992;28;20036;-82
2021/11/23 10:12:40;;;;;;;36.85;21.10;;;;;;;10.63;100.00;97784.13;5067416;28;20108;-83
2021/11/23 10:15:20;;;;;;;35.83;23.33;;;;;;;10.47;100.00;97773.47;5022608;28;20111;-82
2021/11/23 10:17:50;;;;;;;42.83;24.67;;;;;;;10.50;100.00;97788.47;5051811;28;20029;-82
2021/11/23 10:20:31;;;;;;;38.90;23.40;;;;;;;10.58;100.00;97799.59;5042595;28;20396;-82
2021/11/23 10:23:20;;;;;;;38.08;23.58;;;;;;;10.45;100.00;97796.75;5038868;28;20123;-82
2021/11/23 10:25:47;;;;;;;34.38;22.30;;;;;;;10.36;100.00;97785.72;5035794;28;20031;-83
2021/11/23 10:28:14;;;;;;;42.47;22.50;;;;;;;10.33;100.00;97782.28;5022329;28;20453;-82
2021/11/23 10:30:44;;;;;;;43.40;23.85;;;;;;;10.36;100.00;97788.41;5040537;28;20064;-82
2021/11/23 10:33:11;;;;;;;38.35;22.48;;;;;;;10.33;100.00;97784.97;5024792;28;20025;-80
2021/11/23 10:35:42;;;;;;;28.30;19.00;;;;;;;10.38;100.00;97783.81;5035588;28;20541;-80
2021/11/23 10:38:09;;;;;;;31.50;20.00;;;;;;;10.33;100.00;97787.63;5036415;28;20024;-81
2021/11/23 10:40:39;;;;;;;28.33;18.85;;;;;;;10.37;100.00;97780.28;5020885;28;20028;-81
2021/11/23 10:43:14;;;;;;;22.95;15.80;;;;;;;10.28;100.00;97789.69;5054976;28;20040;-80
2021/11/23 10:45:58;;;;;;;25.58;15.10;;;;;;;10.22;100.00;97783.81;5055396;28;20028;-80
2021/11/23 10:48:26;;;;;;;22.60;15.25;;;;;;;10.19;100.00;97778.66;5038850;28;20031;-90
2021/11/23 10:51:02;;;;;;;23.85;15.48;;;;;;;10.25;100.00;97778.31;5038662;28;20468;-82
2021/11/23 10:53:28;;;;;;;24.17;15.32;;;;;;;10.35;100.00;97790.22;5038629;28;20028;-81
2021/11/23 10:55:58;;;;;;;23.38;15.60;;;;;;;10.24;100.00;97785.47;5038787;28;20077;-82
2021/11/23 10:58:23;;;;;;;25.90;16.73;;;;;;;10.35;100.00;97787.53;5033093;28;20392;-84
2021/11/23 11:00:49;;;;;;;27.75;17.80;;;;;;;10.40;100.00;97792.63;5051443;28;20028;-81
2021/11/23 11:03:16;;;;;;;30.85;18.80;;;;;;;10.48;100.00;97787.69;5055162;28;20020;-81
2021/11/23 11:05:43;;;;;;;32.47;19.40;;;;;;;10.55;100.00;97784.56;5038243;28;20480;-82
2021/11/23 11:08:10;;;;;;;34.47;20.65;;;;;;;10.64;100.00;97799.25;5054653;28;20040;-81
2021/11/23 11:10:38;;;;;;;34.78;20.52;;;;;;;10.64;100.00;97785.88;5055387;28;20023;-81
2021/11/23 11:13:10;;;;;;;35.42;20.52;;;;;;;10.65;100.00;97792.91;5054788;28;20028;-81
2021/11/23 11:15:40;;;;;;;32.40;21.27;;;;;;;10.51;100.00;97804.44;5055133;28;20020;-82
2021/11/23 11:18:09;;;;;;;38.58;24.67;;;;;;;10.60;100.00;97800.34;5037938;28;20070;-82
2021/11/23 11:20:39;;;;;;;52.15;30.85;;;;;;;10.53;100.00;97809.69;5054960;28;20403;-81
2021/11/23 11:23:15;;;;;;;47.10;29.80;;;;;;;10.53;100.00;97810.53;5054804;28;20025;-82
2021/11/23 11:28:45;;;;;;;57.33;34.63;;;;;;;10.43;100.00;97795.97;5051329;28;20415;-82
2021/11/23 11:31:47;;;;;;;55.67;34.45;;;;;;;10.52;100.00;97807.97;5051418;28;20029;-81
2021/11/23 11:34:31;;;;;;;58.38;34.50;;;;;;;10.67;100.00;97812.44;5072690;28;20024;-82
2021/11/23 11:37:01;;;;;;;55.45;33.03;;;;;;;10.58;100.00;97812.97;5034486;28;20097;-81
2021/11/23 11:39:36;;;;;;;51.97;31.35;;;;;;;10.60;100.00;97813.72;5039976;28;20020;-90
2021/11/23 11:42:32;;;;;;;50.20;31.63;;;;;;;10.55;100.00;97805.13;5076918;28;20051;-90
2021/11/23 11:44:58;;;;;;;50.25;29.88;;;;;;;10.61;100.00;97808.28;5059161;28;20025;-89
2021/11/23 11:47:35;;;;;;;47.72;30.67;;;;;;;10.70;100.00;97810.44;5043174;28;20130;-89
2021/11/23 11:50:08;;;;;;;44.28;29.00;;;;;;;10.68;100.00;97822.16;5043096;28;20039;-90
2021/11/23 11:53:04;;;;;;;37.15;23.45;;;;;;;10.36;100.00;97772.34;5043858;28;20051;-89
2021/11/23 11:55:36;;;;;;;42.88;24.92;;;;;;;10.34;100.00;97797.38;5061463;28;20033;-91
2021/11/23 11:58:06;;;;;;;39.72;25.02;;;;;;;10.33;100.00;97797.47;5048059;28;20029;-91
2021/11/23 12:00:39;;;;;;;36.05;24.13;;;;;;;10.08;100.00;97768.56;5046651;28;20035;-88
2021/11/23 12:03:15;;;;;;;37.67;22.33;;;;;;;10.49;100.00;97833.06;5045732;28;20031;-91
2021/11/23 12:05:50;;;;;;;40.53;24.27;;;;;;;10.49;100.00;97841.09;5062021;28;20036;-89
2021/11/23 12:08:30;;;;;;;44.70;28.05;;;;;;;10.41;100.00;97821.94;5062271;28;20090;-90
2021/11/23 12:11:01;;;;;;;56.20;35.38;;;;;;;10.58;100.00;97850.41;5043791;28;20127;-88
2021/11/23 12:13:29;;;;;;;47.85;25.77;;;;;;;10.44;100.00;97850.31;5043916;28;20403;-90